Time;durP1;ratioP1;P1;durP2;ratioP2;P2;SDS_P1;SDS_P2;PMS_P1;PMS_P2;Temp;Humidity;BMP_temperature;BMP_pressure;BME280_temperature;BME280_humidity;BME280_pressure;Samples;Min_cycle;Max_cycle;Signal;HPM_P1;HPM_P2
2022/03/14 00:01:02;;;;;;;20.42;11.35;;;;;;;;;;5012579;28;20661;-62
2022/03/14 00:03:53;;;;;;;17.13;11.23;;;;;;;;;;5012570;28;20033;-61
2022/03/14 00:06:38;;;;;;;19.02;11.50;;;;;;;;;;4997635;28;20048;-65
2022/03/14 00:09:24;;;;;;;17.25;11.88;;;;;;;;;;5012628;28;20053;-65
2022/03/14 00:12:10;;;;;;;17.17;11.85;;;;;;;;;;5011820;28;20401;-68
2022/03/14 00:14:58;;;;;;;18.33;11.55;;;;;;;;;;5018623;28;20045;-66
2022/03/14 00:17:47;;;;;;;17.50;10.52;;;;;;;;;;5013823;28;20041;-67
2022/03/14 00:20:32;;;;;;;19.48;10.73;;;;;;;;;;5002790;28;20125;-62
2022/03/14 00:23:20;;;;;;;19.85;11.77;;;;;;;;;;5014637;28;20488;-62
2022/03/14 00:26:07;;;;;;;20.05;11.95;;;;;;;;;;4986986;28;20388;-63
2022/03/14 00:28:53;;;;;;;18.90;12.07;;;;;;;;;;4976849;28;20134;-63
2022/03/14 00:31:38;;;;;;;18.98;11.88;;;;;;;;;;4980934;28;21730;-63
2022/03/14 00:34:23;;;;;;;18.20;11.23;;;;;;;;;;5016026;28;20033;-63
2022/03/14 00:37:09;;;;;;;19.23;12.02;;;;;;;;;;5013175;28;20574;-64
2022/03/14 00:39:55;;;;;;;20.88;11.60;;;;;;;;;;5023910;28;20125;-66
2022/03/14 00:42:41;;;;;;;18.40;11.80;;;;;;;;;;5014602;28;20038;-62
2022/03/14 00:45:26;;;;;;;20.70;11.30;;;;;;;;;;5022253;28;20021;-61
2022/03/14 00:48:13;;;;;;;18.90;10.38;;;;;;;;;;5014669;28;20403;-61
2022/03/14 00:50:58;;;;;;;19.13;11.63;;;;;;;;;;5006446;28;20041;-60
2022/03/14 00:53:43;;;;;;;21.00;12.25;;;;;;;;;;5007868;28;20098;-62
2022/03/14 00:56:29;;;;;;;17.85;11.20;;;;;;;;;;5014492;28;20041;-62
2022/03/14 00:59:14;;;;;;;21.15;11.93;;;;;;;;;;5010061;28;20049;-64
2022/03/14 01:02:00;;;;;;;19.38;11.90;;;;;;;;;;5015703;28;20033;-59
2022/03/14 01:04:45;;;;;;;17.90;11.80;;;;;;;;;;5014058;28;20030;-60
2022/03/14 01:07:34;;;;;;;17.67;11.80;;;;;;;;;;5015549;28;20029;-60
2022/03/14 01:10:20;;;;;;;19.15;12.02;;;;;;;;;;5015266;28;20026;-60
2022/03/14 01:13:05;;;;;;;20.23;11.13;;;;;;;;;;5000316;28;20439;-60
2022/03/14 01:15:50;;;;;;;17.23;11.25;;;;;;;;;;5015041;28;20033;-64
2022/03/14 01:18:36;;;;;;;17.58;10.90;;;;;;;;;;5021392;28;20100;-64
2022/03/14 01:21:21;;;;;;;21.00;12.43;;;;;;;;;;5011294;28;20369;-66
2022/03/14 01:24:07;;;;;;;21.08;13.20;;;;;;;;;;5000920;28;20044;-64
2022/03/14 01:26:52;;;;;;;18.50;12.73;;;;;;;;;;4976126;28;20646;-64
2022/03/14 01:29:38;;;;;;;20.20;13.02;;;;;;;;;;4984363;28;20164;-64
2022/03/14 01:32:23;;;;;;;18.90;12.10;;;;;;;;;;4995058;28;20418;-63
2022/03/14 01:35:08;;;;;;;19.95;13.05;;;;;;;;;;4995346;28;20030;-59
2022/03/14 01:37:54;;;;;;;18.67;12.25;;;;;;;;;;4996575;28;20374;-71
2022/03/14 01:40:40;;;;;;;24.98;15.30;;;;;;;;;;5018848;28;20117;-69
2022/03/14 01:43:26;;;;;;;21.42;14.75;;;;;;;;;;4995038;28;20048;-72
2022/03/14 01:46:12;;;;;;;22.70;15.70;;;;;;;;;;5009809;28;20567;-70
2022/03/14 01:48:58;;;;;;;21.88;15.38;;;;;;;;;;4999353;28;20030;-69
2022/03/14 01:51:44;;;;;;;23.80;16.35;;;;;;;;;;5015939;28;20347;-72
2022/03/14 01:54:29;;;;;;;22.00;15.75;;;;;;;;;;5014629;28;20033;-62
2022/03/14 01:57:14;;;;;;;21.63;16.40;;;;;;;;;;4994686;28;20037;-61
2022/03/14 02:00:00;;;;;;;21.33;16.50;;;;;;;;;;4996038;28;20077;-64
2022/03/14 02:02:47;;;;;;;25.73;16.48;;;;;;;;;;4991132;28;20050;-64
2022/03/14 02:05:35;;;;;;;26.08;16.55;;;;;;;;;;4983990;28;20087;-63
2022/03/14 02:08:20;;;;;;;24.70;17.02;;;;;;;;;;5014670;28;20033;-62
2022/03/14 02:11:06;;;;;;;22.85;16.67;;;;;;;;;;5013385;28;20403;-70
2022/03/14 02:13:51;;;;;;;20.17;15.52;;;;;;;;;;5014522;28;20038;-68
2022/03/14 02:16:37;;;;;;;21.45;16.63;;;;;;;;;;5009091;28;20084;-65
2022/03/14 02:19:22;;;;;;;23.08;16.48;;;;;;;;;;4994564;28;20129;-67
2022/03/14 02:22:13;;;;;;;24.23;15.57;;;;;;;;;;5028409;28;20029;-67
2022/03/14 02:24:58;;;;;;;24.52;17.25;;;;;;;;;;5007373;28;20117;-67
2022/03/14 02:27:43;;;;;;;20.10;15.45;;;;;;;;;;4994368;28;20121;-65
2022/03/14 02:30:29;;;;;;;23.70;17.60;;;;;;;;;;4994662;28;20389;-64
2022/03/14 02:33:14;;;;;;;22.80;15.90;;;;;;;;;;5012054;28;20105;-63
2022/03/14 02:35:59;;;;;;;21.80;16.02;;;;;;;;;;5014390;28;20033;-65
2022/03/14 02:38:44;;;;;;;23.30;16.15;;;;;;;;;;5002495;28;20193;-63
2022/03/14 02:41:31;;;;;;;25.27;16.02;;;;;;;;;;5020282;28;20492;-63
2022/03/14 02:44:16;;;;;;;18.77;14.23;;;;;;;;;;4998036;28;20124;-62
2022/03/14 02:47:04;;;;;;;25.15;16.58;;;;;;;;;;4997027;28;20037;-62
2022/03/14 02:49:49;;;;;;;20.42;15.55;;;;;;;;;;5013617;28;20147;-63
2022/03/14 02:52:35;;;;;;;20.52;15.85;;;;;;;;;;5001458;28;20120;-60
2022/03/14 02:55:23;;;;;;;21.65;15.60;;;;;;;;;;5018338;28;20029;-61
2022/03/14 02:58:08;;;;;;;21.38;13.82;;;;;;;;;;5007863;28;20029;-60
2022/03/14 03:00:55;;;;;;;22.38;15.90;;;;;;;;;;4974511;28;20081;-63
2022/03/14 03:03:41;;;;;;;23.73;16.42;;;;;;;;;;4998273;28;20075;-61
2022/03/14 03:06:26;;;;;;;29.50;16.65;;;;;;;;;;5013464;28;20132;-63
2022/03/14 03:09:11;;;;;;;22.33;16.48;;;;;;;;;;5012297;28;20043;-73
2022/03/14 03:11:57;;;;;;;28.35;17.02;;;;;;;;;;5013009;28;20037;-71
2022/03/14 03:14:42;;;;;;;24.75;15.38;;;;;;;;;;4980777;28;20034;-71
2022/03/14 03:17:27;;;;;;;24.48;15.55;;;;;;;;;;4994049;28;20389;-71
2022/03/14 03:20:14;;;;;;;21.83;15.50;;;;;;;;;;4994021;28;20044;-71
2022/03/14 03:22:59;;;;;;;23.60;15.35;;;;;;;;;;4993492;28;20192;-72
2022/03/14 03:25:45;;;;;;;24.42;16.25;;;;;;;;;;5007626;28;20040;-68
2022/03/14 03:28:36;;;;;;;22.70;16.08;;;;;;;;;;5008531;28;20171;-65
2022/03/14 03:31:22;;;;;;;23.30;14.95;;;;;;;;;;5013261;28;20117;-66
2022/03/14 03:34:07;;;;;;;24.73;16.13;;;;;;;;;;5011942;28;20113;-66
2022/03/14 03:36:52;;;;;;;25.80;16.92;;;;;;;;;;5013152;28;20135;-64
2022/03/14 03:39:38;;;;;;;27.05;17.80;;;;;;;;;;5007676;28;20095;-63
2022/03/14 03:42:23;;;;;;;25.23;17.73;;;;;;;;;;4993500;28;20030;-64
2022/03/14 03:45:09;;;;;;;23.98;16.88;;;;;;;;;;5003506;28;20059;-63
2022/03/14 03:47:54;;;;;;;22.08;16.45;;;;;;;;;;5013202;28;20038;-67
2022/03/14 03:50:39;;;;;;;21.10;15.65;;;;;;;;;;5011660;28;20120;-67
2022/03/14 03:53:24;;;;;;;22.60;16.33;;;;;;;;;;5010508;28;20029;-67
2022/03/14 03:56:10;;;;;;;23.30;17.10;;;;;;;;;;5013226;28;20488;-69
2022/03/14 03:58:55;;;;;;;27.15;16.23;;;;;;;;;;4997477;28;20034;-67
2022/03/14 04:01:41;;;;;;;20.00;14.20;;;;;;;;;;5013782;28;20456;-73
2022/03/14 04:04:26;;;;;;;18.10;12.93;;;;;;;;;;5017155;28;20038;-61
2022/03/14 04:07:11;;;;;;;21.42;13.98;;;;;;;;;;5016933;28;20037;-61
2022/03/14 04:09:57;;;;;;;19.38;12.75;;;;;;;;;;5005876;28;20124;-61
2022/03/14 04:12:44;;;;;;;18.83;13.02;;;;;;;;;;4988469;28;20321;-59
2022/03/14 04:15:43;;;;;;;19.23;13.40;;;;;;;;;;4999636;28;20037;-62
2022/03/14 04:18:28;;;;;;;17.00;11.90;;;;;;;;;;5002954;28;20041;-62
2022/03/14 04:21:15;;;;;;;17.88;11.48;;;;;;;;;;4993974;28;20034;-64
2022/03/14 04:24:03;;;;;;;16.80;12.43;;;;;;;;;;4996935;28;20041;-62
2022/03/14 04:26:48;;;;;;;17.20;12.23;;;;;;;;;;5021030;28;20100;-60
2022/03/14 04:29:34;;;;;;;16.20;11.38;;;;;;;;;;5023154;28;20054;-61
2022/03/14 04:32:19;;;;;;;13.52;9.05;;;;;;;;;;5015378;28;20038;-61
2022/03/14 04:35:05;;;;;;;15.95;11.90;;;;;;;;;;5014552;28;20376;-61
2022/03/14 04:37:50;;;;;;;15.18;10.48;;;;;;;;;;5003973;28;20048;-62
2022/03/14 04:40:36;;;;;;;14.05;10.00;;;;;;;;;;5010040;28;20033;-61
2022/03/14 04:43:21;;;;;;;17.63;12.13;;;;;;;;;;5028329;28;20152;-63
2022/03/14 04:46:07;;;;;;;17.58;12.80;;;;;;;;;;5016074;28;20038;-61
2022/03/14 04:48:52;;;;;;;15.30;10.55;;;;;;;;;;4990363;28;20502;-60
2022/03/14 04:51:38;;;;;;;12.45;8.23;;;;;;;;;;4997287;28;20036;-60
2022/03/14 04:54:23;;;;;;;14.20;9.70;;;;;;;;;;5002083;28;20500;-63
2022/03/14 04:57:09;;;;;;;13.23;8.73;;;;;;;;;;4999379;28;20030;-60
2022/03/14 04:59:54;;;;;;;10.32;7.50;;;;;;;;;;5015791;28;20392;-63
2022/03/14 05:02:40;;;;;;;8.73;5.88;;;;;;;;;;5022021;28;20033;-66
2022/03/14 05:05:25;;;;;;;6.53;4.63;;;;;;;;;;5010853;28;20032;-64
2022/03/14 05:08:10;;;;;;;11.43;6.63;;;;;;;;;;5017809;28;20506;-65
2022/03/14 05:10:57;;;;;;;6.63;3.60;;;;;;;;;;5015719;28;20072;-63
2022/03/14 05:13:42;;;;;;;5.75;3.65;;;;;;;;;;5014445;28;20033;-63
2022/03/14 05:16:27;;;;;;;5.32;2.90;;;;;;;;;;5015739;28;20174;-61
2022/03/14 05:19:13;;;;;;;3.90;2.22;;;;;;;;;;5011766;28;20124;-71
2022/03/14 05:21:58;;;;;;;3.17;1.60;;;;;;;;;;5009479;28;20041;-70
2022/03/14 05:24:44;;;;;;;3.08;2.08;;;;;;;;;;5020683;28;20033;-70
2022/03/14 05:27:29;;;;;;;3.20;1.75;;;;;;;;;;4995427;28;20065;-71
2022/03/14 05:30:15;;;;;;;2.85;1.52;;;;;;;;;;4995815;28;20034;-71
2022/03/14 05:33:00;;;;;;;3.72;1.50;;;;;;;;;;4985825;28;20056;-71
2022/03/14 05:35:45;;;;;;;3.65;1.67;;;;;;;;;;5012181;28;20125;-72
2022/03/14 05:38:31;;;;;;;2.05;1.60;;;;;;;;;;5003293;28;21217;-62
2022/03/14 05:41:16;;;;;;;4.00;1.67;;;;;;;;;;5014665;28;20037;-64
2022/03/14 05:44:02;;;;;;;1.92;1.48;;;;;;;;;;5013509;28;20029;-63
2022/03/14 05:46:47;;;;;;;2.45;1.30;;;;;;;;;;5014911;28;20404;-63
2022/03/14 05:49:32;;;;;;;1.63;1.27;;;;;;;;;;5001727;28;20035;-61
2022/03/14 05:52:21;;;;;;;2.70;1.20;;;;;;;;;;5014585;28;20468;-68
2022/03/14 05:55:07;;;;;;;1.27;1.10;;;;;;;;;;5004402;28;20487;-66
2022/03/14 05:57:52;;;;;;;1.55;1.10;;;;;;;;;;5002581;28;20053;-64
2022/03/14 06:00:39;;;;;;;2.72;1.35;;;;;;;;;;5020829;28;20029;-64
2022/03/14 06:03:24;;;;;;;2.15;1.60;;;;;;;;;;4996269;28;20034;-65
2022/03/14 06:06:09;;;;;;;3.33;1.35;;;;;;;;;;5018178;28;20048;-64
2022/03/14 06:08:54;;;;;;;2.53;1.50;;;;;;;;;;5014371;28;20787;-64
2022/03/14 06:11:41;;;;;;;1.70;1.35;;;;;;;;;;5013188;28;20040;-62
2022/03/14 06:14:26;;;;;;;2.05;1.40;;;;;;;;;;5014074;28;20034;-59
2022/03/14 06:17:12;;;;;;;2.15;1.45;;;;;;;;;;4997954;28;20022;-60
2022/03/14 06:19:58;;;;;;;2.25;1.33;;;;;;;;;;5008273;28;20044;-63
2022/03/14 06:22:44;;;;;;;4.75;1.20;;;;;;;;;;5014426;28;20033;-60
2022/03/14 06:25:30;;;;;;;1.65;1.05;;;;;;;;;;5005744;28;20069;-59
2022/03/14 06:28:15;;;;;;;2.97;1.13;;;;;;;;;;5006525;28;20030;-60
2022/03/14 06:31:01;;;;;;;2.45;1.20;;;;;;;;;;4993679;28;20045;-66
2022/03/14 06:33:49;;;;;;;2.30;1.45;;;;;;;;;;4982849;28;20045;-62
2022/03/14 06:36:34;;;;;;;1.52;1.20;;;;;;;;;;4992392;28;20021;-62
2022/03/14 06:39:19;;;;;;;2.50;1.30;;;;;;;;;;5009505;28;20030;-62
2022/03/14 06:42:09;;;;;;;1.42;1.15;;;;;;;;;;5001716;28;20485;-61
2022/03/14 06:44:56;;;;;;;2.80;1.70;;;;;;;;;;4993562;28;20036;-62
2022/03/14 06:47:42;;;;;;;3.50;1.38;;;;;;;;;;4994268;28;20042;-61
2022/03/14 06:50:27;;;;;;;2.42;1.67;;;;;;;;;;4988911;28;20026;-59
2022/03/14 06:53:12;;;;;;;4.53;2.63;;;;;;;;;;4998223;28;20397;-61
2022/03/14 06:55:58;;;;;;;4.43;2.22;;;;;;;;;;4993779;28;20038;-61
2022/03/14 06:58:43;;;;;;;4.93;2.30;;;;;;;;;;4993949;28;20065;-60
2022/03/14 07:01:30;;;;;;;2.50;1.40;;;;;;;;;;4993598;28;20052;-61
2022/03/14 07:04:15;;;;;;;4.60;1.65;;;;;;;;;;4974663;28;20070;-63
2022/03/14 07:07:03;;;;;;;4.97;1.80;;;;;;;;;;4979960;28;20100;-60
2022/03/14 07:09:48;;;;;;;4.25;2.25;;;;;;;;;;5003011;28;20080;-68
2022/03/14 07:12:44;;;;;;;4.18;2.08;;;;;;;;;;4991593;28;20026;-66
2022/03/14 07:15:29;;;;;;;1.58;1.00;;;;;;;;;;4990043;28;20385;-66
2022/03/14 07:18:15;;;;;;;3.17;1.75;;;;;;;;;;4979339;28;20374;-66
2022/03/14 07:21:01;;;;;;;3.63;1.48;;;;;;;;;;4991299;28;20049;-69
2022/03/14 07:23:46;;;;;;;3.58;1.52;;;;;;;;;;4992061;28;20065;-62
2022/03/14 07:26:31;;;;;;;3.25;1.50;;;;;;;;;;4992722;28;20539;-68
2022/03/14 07:29:17;;;;;;;3.45;1.60;;;;;;;;;;4989947;28;20386;-62
2022/03/14 07:32:02;;;;;;;4.30;1.40;;;;;;;;;;5000804;28;20122;-61
2022/03/14 07:34:47;;;;;;;1.40;1.10;;;;;;;;;;4990434;28;20033;-62
2022/03/14 07:37:33;;;;;;;1.80;0.80;;;;;;;;;;4991684;28;20061;-59
2022/03/14 07:40:18;;;;;;;2.25;1.25;;;;;;;;;;4993238;28;20425;-59
2022/03/14 07:43:04;;;;;;;22.90;6.57;;;;;;;;;;4997401;28;20140;-61
2022/03/14 07:45:49;;;;;;;5.05;1.80;;;;;;;;;;5005264;28;20033;-64
2022/03/14 07:48:34;;;;;;;2.25;1.10;;;;;;;;;;4992483;28;20707;-62
2022/03/14 07:51:19;;;;;;;5.68;1.38;;;;;;;;;;4992388;28;20057;-66
2022/03/14 07:54:05;;;;;;;2.67;1.30;;;;;;;;;;4988877;28;20037;-63
2022/03/14 07:56:50;;;;;;;2.97;1.40;;;;;;;;;;4990787;28;20026;-63
2022/03/14 07:59:35;;;;;;;2.70;1.30;;;;;;;;;;4994751;28;20478;-65
2022/03/14 08:02:20;;;;;;;4.93;1.65;;;;;;;;;;4986939;28;20480;-69
2022/03/14 08:05:07;;;;;;;2.70;1.00;;;;;;;;;;4985584;28;20045;-68
2022/03/14 08:07:53;;;;;;;3.78;1.70;;;;;;;;;;4986687;28;20045;-67
2022/03/14 08:10:41;;;;;;;3.45;1.10;;;;;;;;;;4983963;28;20030;-73
2022/03/14 08:13:27;;;;;;;2.13;1.20;;;;;;;;;;4993145;28;20080;-67
2022/03/14 08:16:12;;;;;;;2.60;1.08;;;;;;;;;;4981667;28;20377;-68
2022/03/14 08:18:58;;;;;;;3.28;1.10;;;;;;;;;;5000444;28;20526;-61
2022/03/14 08:21:43;;;;;;;5.40;1.67;;;;;;;;;;4993894;28;20335;-69
2022/03/14 08:24:29;;;;;;;3.42;1.35;;;;;;;;;;4990531;28;20095;-63
2022/03/14 08:27:14;;;;;;;4.47;1.35;;;;;;;;;;4990899;28;20516;-64
2022/03/14 08:29:59;;;;;;;3.97;1.10;;;;;;;;;;4989353;28;20034;-63
2022/03/14 08:32:44;;;;;;;3.42;1.10;;;;;;;;;;4985571;28;20026;-61
2022/03/14 08:35:30;;;;;;;6.95;1.60;;;;;;;;;;4984761;28;20349;-62
2022/03/14 08:38:15;;;;;;;5.53;1.73;;;;;;;;;;4991654;28;20025;-63
2022/03/14 08:41:00;;;;;;;5.78;1.80;;;;;;;;;;4994251;28;20044;-74
2022/03/14 08:43:46;;;;;;;4.25;1.70;;;;;;;;;;4990587;28;20038;-76
2022/03/14 08:46:31;;;;;;;6.68;1.60;;;;;;;;;;5009657;28;20029;-74
2022/03/14 08:49:17;;;;;;;2.53;1.10;;;;;;;;;;4989885;28;20477;-75
2022/03/14 08:52:02;;;;;;;4.50;1.77;;;;;;;;;;4995138;28;20068;-79
2022/03/14 08:54:48;;;;;;;3.65;1.40;;;;;;;;;;4991454;28;20084;-76
2022/03/14 08:57:33;;;;;;;3.20;1.70;;;;;;;;;;4994500;28;20042;-63
2022/03/14 09:00:19;;;;;;;4.20;1.23;;;;;;;;;;4995280;28;20065;-64
2022/03/14 09:03:04;;;;;;;4.30;1.98;;;;;;;;;;5004976;28;20034;-61
2022/03/14 09:05:49;;;;;;;5.90;1.60;;;;;;;;;;4990219;28;20156;-62
2022/03/14 09:08:35;;;;;;;4.13;1.75;;;;;;;;;;4994568;28;20018;-64
2022/03/14 09:11:20;;;;;;;5.65;2.00;;;;;;;;;;4994822;28;20037;-62
2022/03/14 09:14:06;;;;;;;7.43;1.95;;;;;;;;;;4989966;28;20034;-62
2022/03/14 09:16:51;;;;;;;5.82;1.63;;;;;;;;;;4995667;28;20030;-66
2022/03/14 09:19:37;;;;;;;7.53;2.15;;;;;;;;;;4999879;28;20119;-60
2022/03/14 09:22:22;;;;;;;4.80;1.50;;;;;;;;;;4997603;28;20087;-59
2022/03/14 09:25:07;;;;;;;7.03;2.00;;;;;;;;;;4993196;28;20133;-60
2022/03/14 09:27:53;;;;;;;4.85;1.80;;;;;;;;;;4981255;28;20071;-60
2022/03/14 09:30:38;;;;;;;5.38;2.22;;;;;;;;;;4992279;28;20093;-58
2022/03/14 09:33:23;;;;;;;5.95;1.52;;;;;;;;;;5012086;28;20155;-59
2022/03/14 09:36:09;;;;;;;4.07;1.55;;;;;;;;;;4995272;28;20041;-77
2022/03/14 09:38:54;;;;;;;4.38;1.55;;;;;;;;;;5002522;28;20049;-74
2022/03/14 09:41:40;;;;;;;3.85;1.40;;;;;;;;;;4980281;28;20394;-70
2022/03/14 09:44:27;;;;;;;5.57;1.58;;;;;;;;;;4995449;28;20428;-72
2022/03/14 09:47:12;;;;;;;4.65;1.75;;;;;;;;;;4991188;28;20030;-71
2022/03/14 09:49:59;;;;;;;7.97;1.83;;;;;;;;;;5000091;28;20073;-69
2022/03/14 09:52:44;;;;;;;6.47;1.85;;;;;;;;;;4994453;28;20109;-61
2022/03/14 09:55:30;;;;;;;5.63;1.45;;;;;;;;;;5007759;28;20041;-71
2022/03/14 09:58:17;;;;;;;4.22;1.60;;;;;;;;;;4993198;28;20042;-73
2022/03/14 10:01:03;;;;;;;3.65;1.83;;;;;;;;;;4992582;28;20052;-71
2022/03/14 10:03:49;;;;;;;4.43;1.77;;;;;;;;;;4993697;28;20049;-75
2022/03/14 10:06:35;;;;;;;4.50;1.58;;;;;;;;;;4991234;28;20080;-74
2022/03/14 10:09:20;;;;;;;9.13;1.75;;;;;;;;;;4994282;28;20145;-73
2022/03/14 10:12:05;;;;;;;3.88;1.73;;;;;;;;;;4992215;28;20464;-67
2022/03/14 10:14:51;;;;;;;5.20;1.95;;;;;;;;;;5006763;28;20029;-61
2022/03/14 10:17:36;;;;;;;5.07;2.03;;;;;;;;;;4993488;28;20032;-60
2022/03/14 10:20:22;;;;;;;4.10;1.60;;;;;;;;;;4995183;28;20030;-62
2022/03/14 10:23:07;;;;;;;2.47;1.50;;;;;;;;;;4991250;28;20120;-61
2022/03/14 10:25:56;;;;;;;4.95;1.88;;;;;;;;;;4988884;28;20045;-60
2022/03/14 10:28:41;;;;;;;3.60;1.67;;;;;;;;;;4993320;28;20065;-59
2022/03/14 10:31:34;;;;;;;6.75;1.80;;;;;;;;;;4993563;28;20092;-60
2022/03/14 10:34:20;;;;;;;5.40;1.83;;;;;;;;;;4984856;28;20113;-61
2022/03/14 10:37:11;;;;;;;4.25;1.67;;;;;;;;;;4994415;28;20125;-65
2022/03/14 10:39:57;;;;;;;5.40;1.77;;;;;;;;;;4987326;28;20038;-63
2022/03/14 10:42:43;;;;;;;4.22;1.52;;;;;;;;;;4992908;28;20286;-62
2022/03/14 10:45:32;;;;;;;6.13;1.80;;;;;;;;;;4993363;28;20033;-64
2022/03/14 10:48:30;;;;;;;4.18;1.75;;;;;;;;;;4993071;28;20058;-60
2022/03/14 10:51:16;;;;;;;2.95;1.50;;;;;;;;;;4990352;28;20037;-60
2022/03/14 10:54:01;;;;;;;3.28;1.70;;;;;;;;;;5000608;28;20343;-62
2022/03/14 10:57:12;;;;;;;7.30;1.98;;;;;;;;;;4992777;28;20038;-61
2022/03/14 10:59:58;;;;;;;3.72;1.60;;;;;;;;;;4992181;28;20042;-60
2022/03/14 11:03:02;;;;;;;3.60;1.48;;;;;;;;;;4994583;28;20045;-61
2022/03/14 11:05:47;;;;;;;1.88;1.20;;;;;;;;;;4987604;28;20034;-61
2022/03/14 11:08:33;;;;;;;3.72;1.75;;;;;;;;;;4993458;28;20104;-65
2022/03/14 11:11:22;;;;;;;5.55;1.63;;;;;;;;;;4995695;28;20127;-67
2022/03/14 11:14:12;;;;;;;5.85;1.38;;;;;;;;;;5006744;28;20034;-68
2022/03/14 11:17:09;;;;;;;2.80;1.40;;;;;;;;;;4991169;28;20034;-66
2022/03/14 11:19:55;;;;;;;4.18;1.63;;;;;;;;;;4990046;28;20037;-68
2022/03/14 11:22:41;;;;;;;3.65;1.20;;;;;;;;;;4991189;28;20033;-66
2022/03/14 11:25:26;;;;;;;6.50;1.88;;;;;;;;;;4992113;28;20026;-66
2022/03/14 11:28:16;;;;;;;3.85;1.35;;;;;;;;;;5004556;28;20025;-66
2022/03/14 11:31:01;;;;;;;3.78;1.30;;;;;;;;;;4991106;28;20041;-67
2022/03/14 11:33:47;;;;;;;4.75;1.40;;;;;;;;;;4982858;28;20035;-63
2022/03/14 11:36:32;;;;;;;5.85;1.88;;;;;;;;;;4980187;28;20030;-65
2022/03/14 11:39:18;;;;;;;6.72;2.13;;;;;;;;;;4995304;28;20113;-62
2022/03/14 11:42:03;;;;;;;6.45;1.95;;;;;;;;;;4986689;28;20038;-62
2022/03/14 11:44:49;;;;;;;6.65;1.73;;;;;;;;;;4989808;28;20034;-65
2022/03/14 11:47:35;;;;;;;6.47;1.73;;;;;;;;;;4996147;28;20106;-64
2022/03/14 11:50:22;;;;;;;3.67;1.55;;;;;;;;;;4984969;28;20037;-63
2022/03/14 11:53:07;;;;;;;1.35;1.20;;;;;;;;;;4994346;28;20037;-64
2022/03/14 11:55:59;;;;;;;3.75;1.65;;;;;;;;;;4983590;28;20084;-64
2022/03/14 11:58:48;;;;;;;5.15;1.45;;;;;;;;;;4994025;28;20026;-67
2022/03/14 12:01:34;;;;;;;5.63;1.60;;;;;;;;;;5003699;28;20355;-59
2022/03/14 12:04:51;;;;;;;3.63;1.58;;;;;;;;;;4992237;28;20076;-58
2022/03/14 12:07:37;;;;;;;3.67;1.45;;;;;;;;;;4981664;28;20061;-62
2022/03/14 12:10:29;;;;;;;3.60;1.20;;;;;;;;;;5007199;28;20441;-59
2022/03/14 12:13:34;;;;;;;2.75;1.13;;;;;;;;;;4993493;28;20092;-59
2022/03/14 12:16:39;;;;;;;4.95;1.83;;;;;;;;;;5003662;28;20030;-61
2022/03/14 12:19:41;;;;;;;4.10;1.30;;;;;;;;;;4995902;28;20109;-59
2022/03/14 12:22:29;;;;;;;4.32;1.58;;;;;;;;;;4991449;28;20026;-68
2022/03/14 12:25:35;;;;;;;2.85;1.33;;;;;;;;;;5000651;28;20083;-69
2022/03/14 12:28:27;;;;;;;6.80;1.92;;;;;;;;;;4995885;28;20048;-69
2022/03/14 12:31:13;;;;;;;2.92;1.42;;;;;;;;;;5002275;28;20037;-68
2022/03/14 12:34:08;;;;;;;4.35;1.55;;;;;;;;;;4995498;28;20359;-68
2022/03/14 12:36:54;;;;;;;4.03;1.65;;;;;;;;;;4994284;28;20048;-80
2022/03/14 12:39:39;;;;;;;2.35;1.20;;;;;;;;;;5005330;28;20037;-63
2022/03/14 12:42:25;;;;;;;6.30;1.60;;;;;;;;;;4991414;28;20112;-64
2022/03/14 12:45:20;;;;;;;3.30;1.25;;;;;;;;;;4994990;28;20047;-60
2022/03/14 12:48:16;;;;;;;3.22;1.10;;;;;;;;;;5009033;28;20198;-61
2022/03/14 12:51:08;;;;;;;2.92;1.30;;;;;;;;;;5000119;28;20080;-64
2022/03/14 12:53:57;;;;;;;2.45;1.23;;;;;;;;;;4995132;28;20038;-60
2022/03/14 12:56:43;;;;;;;1.77;0.98;;;;;;;;;;4991994;28;20073;-61
2022/03/14 12:59:30;;;;;;;5.30;1.10;;;;;;;;;;4995611;28;20362;-61
2022/03/14 13:02:22;;;;;;;2.88;1.20;;;;;;;;;;5005254;28;20045;-60
2022/03/14 13:05:08;;;;;;;2.97;1.38;;;;;;;;;;4995850;28;20030;-60
2022/03/14 13:08:03;;;;;;;1.77;1.20;;;;;;;;;;5014075;28;20072;-59
2022/03/14 13:10:51;;;;;;;10.15;2.38;;;;;;;;;;5014355;28;20029;-60
2022/03/14 13:13:38;;;;;;;6.13;1.30;;;;;;;;;;4991294;28;20036;-60
2022/03/14 13:16:28;;;;;;;3.08;1.27;;;;;;;;;;4997952;28;20539;-63
2022/03/14 13:19:18;;;;;;;6.10;1.75;;;;;;;;;;4993810;28;20599;-77
2022/03/14 13:22:14;;;;;;;3.97;1.83;;;;;;;;;;4997055;28;20237;-76
2022/03/14 13:24:59;;;;;;;4.25;1.35;;;;;;;;;;4993054;28;20191;-76
2022/03/14 13:27:52;;;;;;;1.63;1.10;;;;;;;;;;4996337;28;20128;-75
2022/03/14 13:30:44;;;;;;;4.90;1.05;;;;;;;;;;5004327;28;20022;-76
2022/03/14 13:33:33;;;;;;;1.88;1.30;;;;;;;;;;5001798;28;20045;-61
2022/03/14 13:36:18;;;;;;;4.20;1.35;;;;;;;;;;4997225;28;20079;-67
2022/03/14 13:39:05;;;;;;;5.85;1.90;;;;;;;;;;4989792;28;20037;-68
2022/03/14 13:41:54;;;;;;;6.72;1.85;;;;;;;;;;4994131;28;20034;-71
2022/03/14 13:44:39;;;;;;;6.00;1.90;;;;;;;;;;4985562;28;20030;-73
2022/03/14 13:47:25;;;;;;;5.75;1.42;;;;;;;;;;4987208;28;20122;-69
2022/03/14 13:50:10;;;;;;;7.82;1.75;;;;;;;;;;4993404;28;20021;-70
2022/03/14 13:52:55;;;;;;;8.00;1.80;;;;;;;;;;5007068;28;20587;-62
2022/03/14 13:55:50;;;;;;;5.43;1.70;;;;;;;;;;4984559;28;20180;-60
2022/03/14 13:58:36;;;;;;;5.03;1.77;;;;;;;;;;5005844;28;20036;-61
2022/03/14 14:01:40;;;;;;;6.80;1.67;;;;;;;;;;4993900;28;20038;-62
2022/03/14 14:04:30;;;;;;;4.20;1.50;;;;;;;;;;4993845;28;20088;-62
2022/03/14 14:07:15;;;;;;;;;;;;;;;;;;4992570;28;20127;-60
2022/03/14 14:10:09;;;;;;;3.30;1.70;;;;;;;;;;4993749;28;19964;-68
2022/03/14 14:12:59;;;;;;;5.28;1.55;;;;;;;;;;4993419;28;20034;-70
2022/03/14 14:15:46;;;;;;;3.88;1.75;;;;;;;;;;5004565;28;20238;-66
2022/03/14 14:18:32;;;;;;;3.03;1.42;;;;;;;;;;4989901;28;20034;-68
2022/03/14 14:21:18;;;;;;;5.22;1.55;;;;;;;;;;4993337;28;20046;-67
2022/03/14 14:24:07;;;;;;;6.32;1.40;;;;;;;;;;4994483;28;20033;-68
2022/03/14 14:26:52;;;;;;;4.85;1.70;;;;;;;;;;4993364;28;20230;-67
2022/03/14 14:29:41;;;;;;;6.43;1.75;;;;;;;;;;4979948;28;20034;-70
2022/03/14 14:32:27;;;;;;;6.43;1.83;;;;;;;;;;4980104;28;20037;-60
2022/03/14 14:35:12;;;;;;;10.88;1.88;;;;;;;;;;5003278;28;20222;-58
2022/03/14 14:37:57;;;;;;;7.22;1.80;;;;;;;;;;5010427;28;20324;-59
2022/03/14 14:40:52;;;;;;;5.30;1.40;;;;;;;;;;4995043;28;20124;-58
2022/03/14 14:43:39;;;;;;;6.20;1.30;;;;;;;;;;4978745;28;20496;-60
2022/03/14 14:46:24;;;;;;;4.00;1.40;;;;;;;;;;4992848;28;20128;-78
2022/03/14 14:49:09;;;;;;;4.32;1.40;;;;;;;;;;4993187;28;20069;-67
2022/03/14 14:51:57;;;;;;;3.53;1.05;;;;;;;;;;4993075;28;20531;-68
2022/03/14 14:54:43;;;;;;;6.03;1.60;;;;;;;;;;4991206;28;20037;-68
2022/03/14 14:57:28;;;;;;;4.65;1.40;;;;;;;;;;4992968;28;20169;-67
2022/03/14 15:00:13;;;;;;;7.13;1.58;;;;;;;;;;4979195;28;20143;-66
2022/03/14 15:02:59;;;;;;;3.92;1.58;;;;;;;;;;4992486;28;20038;-69
2022/03/14 15:05:47;;;;;;;4.75;1.45;;;;;;;;;;4993247;28;20040;-64
2022/03/14 15:08:32;;;;;;;5.75;1.77;;;;;;;;;;4993411;28;20112;-74
2022/03/14 15:11:18;;;;;;;5.15;1.77;;;;;;;;;;5002653;28;20030;-74
2022/03/14 15:14:03;;;;;;;2.47;1.50;;;;;;;;;;4992348;28;20038;-75
2022/03/14 15:16:48;;;;;;;5.60;1.80;;;;;;;;;;4992511;28;20069;-74
2022/03/14 15:19:34;;;;;;;3.75;1.40;;;;;;;;;;4989027;28;20057;-75
2022/03/14 15:22:19;;;;;;;4.43;1.50;;;;;;;;;;4992902;28;20375;-75
2022/03/14 15:25:06;;;;;;;5.95;1.55;;;;;;;;;;4992293;28;20042;-68
2022/03/14 15:27:51;;;;;;;4.63;1.52;;;;;;;;;;4998116;28;20472;-61
2022/03/14 15:30:43;;;;;;;5.38;1.70;;;;;;;;;;4991886;28;20033;-61
2022/03/14 15:33:30;;;;;;;2.70;1.20;;;;;;;;;;4996501;28;20033;-63
2022/03/14 15:36:15;;;;;;;6.03;1.52;;;;;;;;;;4992532;28;20034;-64
2022/03/14 15:39:02;;;;;;;4.38;1.42;;;;;;;;;;4993621;28;20273;-61
2022/03/14 15:41:47;;;;;;;6.88;1.90;;;;;;;;;;4997861;28;20061;-61
2022/03/14 15:44:33;;;;;;;6.07;2.50;;;;;;;;;;4993476;28;20057;-61
2022/03/14 15:47:19;;;;;;;6.53;1.40;;;;;;;;;;4993117;28;20247;-63
2022/03/14 15:50:04;;;;;;;6.95;2.05;;;;;;;;;;4998863;28;20129;-63
2022/03/14 15:52:49;;;;;;;3.67;1.17;;;;;;;;;;4998521;28;20045;-64
2022/03/14 15:55:37;;;;;;;6.35;1.50;;;;;;;;;;4997518;28;20033;-61
2022/03/14 15:58:22;;;;;;;5.45;1.80;;;;;;;;;;4997807;28;20044;-61
2022/03/14 16:01:09;;;;;;;4.40;1.65;;;;;;;;;;5011075;28;20033;-61
2022/03/14 16:03:55;;;;;;;6.75;2.13;;;;;;;;;;5001326;28;20048;-60
2022/03/14 16:06:40;;;;;;;4.95;1.42;;;;;;;;;;4993630;28;20073;-62
2022/03/14 16:09:25;;;;;;;10.93;2.25;;;;;;;;;;4999746;28;20037;-59
2022/03/14 16:12:10;;;;;;;7.57;1.92;;;;;;;;;;4998617;28;20371;-60
2022/03/14 16:14:56;;;;;;;5.40;1.50;;;;;;;;;;5006493;28;20141;-61
2022/03/14 16:17:41;;;;;;;2.83;1.17;;;;;;;;;;4999332;28;20113;-62
2022/03/14 16:20:28;;;;;;;6.18;1.30;;;;;;;;;;4995917;28;20069;-65
2022/03/14 16:23:13;;;;;;;4.63;1.77;;;;;;;;;;5009803;28;20096;-63
2022/03/14 16:25:59;;;;;;;5.00;1.98;;;;;;;;;;5000228;28;20084;-62
2022/03/14 16:28:45;;;;;;;4.15;1.80;;;;;;;;;;5000075;28;20030;-62
2022/03/14 16:31:32;;;;;;;5.85;2.05;;;;;;;;;;4997343;28;20278;-62